createdAt,value
2019-01-09T00:00:22.321Z,51.30
2019-01-09T00:02:49.850Z,51.30
2019-01-09T00:05:17.375Z,51.40
2019-01-09T00:07:44.920Z,51.30
2019-01-09T00:10:12.502Z,51.90
2019-01-09T00:12:40.357Z,51.40
2019-01-09T00:15:07.886Z,51.30
2019-01-09T00:17:35.443Z,51.20
2019-01-09T00:20:03.519Z,51.10
2019-01-09T00:22:31.071Z,51.10
2019-01-09T00:24:58.583Z,51.00
2019-01-09T00:27:26.184Z,51.00
2019-01-09T00:29:53.720Z,51.10
2019-01-09T00:32:21.330Z,51.20
2019-01-09T00:34:48.860Z,51.20
2019-01-09T00:37:16.387Z,51.20
2019-01-09T00:39:44.003Z,52.00
2019-01-09T00:42:11.523Z,51.20
2019-01-09T00:44:39.056Z,51.30
2019-01-09T00:47:06.635Z,51.10
2019-01-09T00:49:34.164Z,51.80
2019-01-09T00:52:01.680Z,51.10
2019-01-09T00:54:29.219Z,50.90
2019-01-09T00:56:56.746Z,50.80
2019-01-09T00:59:24.646Z,50.80
2019-01-09T01:01:53.811Z,50.80
2019-01-09T01:04:22.965Z,50.90
2019-01-09T01:06:54.809Z,50.80
2019-01-09T01:09:40.627Z,51.10
2019-01-09T01:12:09.776Z,51.00
2019-01-09T01:14:41.913Z,51.10
2019-01-09T01:17:17.087Z,51.10
2019-01-09T01:19:52.425Z,51.10
2019-01-09T01:22:36.667Z,51.00
2019-01-09T01:25:05.916Z,51.00
2019-01-09T01:27:35.173Z,51.00
2019-01-09T01:30:07.068Z,51.10
2019-01-09T01:32:39.252Z,51.00
2019-01-09T01:35:11.434Z,50.90
2019-01-09T01:37:52.961Z,50.90
2019-01-09T01:40:22.222Z,50.80
2019-01-09T01:42:57.571Z,50.80
2019-01-09T01:45:26.744Z,50.80
2019-01-09T01:48:01.716Z,50.90
2019-01-09T01:50:36.603Z,51.00
2019-01-09T01:53:05.765Z,51.00
2019-01-09T01:55:43.811Z,51.10
2019-01-09T01:58:29.425Z,51.00
2019-01-09T02:01:01.317Z,51.00
2019-01-09T02:03:30.538Z,50.90
2019-01-09T02:06:03.845Z,50.90
2019-01-09T02:08:42.628Z,50.80
2019-01-09T02:11:11.859Z,50.70
2019-01-09T02:13:44.026Z,50.60
2019-01-09T02:16:13.182Z,50.50
2019-01-09T02:18:45.033Z,50.60
2019-01-09T02:21:14.194Z,50.60
2019-01-09T02:23:46.304Z,50.60
2019-01-09T02:26:18.208Z,50.60
2019-01-09T02:28:53.435Z,50.60
2019-01-09T02:31:25.573Z,50.50
2019-01-09T02:33:53.184Z,50.50
2019-01-09T02:36:20.772Z,50.60
2019-01-09T02:38:48.310Z,50.50
2019-01-09T02:41:15.842Z,50.50
2019-01-09T02:43:43.376Z,50.50
2019-01-09T02:46:10.911Z,50.50
2019-01-09T02:48:38.447Z,50.50
2019-01-09T02:51:05.974Z,50.50
2019-01-09T02:53:33.519Z,50.50
2019-01-09T02:56:01.112Z,50.50
2019-01-09T02:58:28.669Z,50.50
2019-01-09T03:00:56.263Z,50.50
2019-01-09T03:03:23.816Z,50.40
2019-01-09T03:05:51.596Z,50.40
2019-01-09T03:08:19.126Z,50.40
2019-01-09T03:10:46.656Z,50.30
2019-01-09T03:13:14.191Z,50.20
2019-01-09T03:15:41.721Z,50.50
2019-01-09T03:18:09.247Z,50.40
2019-01-09T03:20:36.778Z,50.40
2019-01-09T03:23:04.304Z,50.20
2019-01-09T03:25:31.846Z,50.20
2019-01-09T03:27:59.366Z,50.30
2019-01-09T03:30:26.905Z,50.40
2019-01-09T03:32:54.426Z,50.50
2019-01-09T03:35:21.963Z,50.50
2019-01-09T03:37:49.485Z,50.50
2019-01-09T03:40:17.030Z,50.50
2019-01-09T03:42:44.623Z,50.50
2019-01-09T03:45:12.173Z,50.50
2019-01-09T03:47:39.711Z,50.50
2019-01-09T03:50:07.600Z,50.50
2019-01-09T03:52:35.129Z,50.50
2019-01-09T03:55:02.641Z,50.40
2019-01-09T03:57:30.229Z,50.40
2019-01-09T03:59:57.758Z,50.30
2019-01-09T04:02:25.295Z,50.00
2019-01-09T04:04:52.821Z,50.20
2019-01-09T04:07:20.354Z,50.30
2019-01-09T04:09:47.890Z,50.40
2019-01-09T04:12:15.515Z,50.40
2019-01-09T04:14:43.120Z,50.50
2019-01-09T04:17:10.649Z,50.50
2019-01-09T04:19:57.598Z,50.50
2019-01-09T04:22:25.544Z,50.20
2019-01-09T04:24:53.076Z,50.50
2019-01-09T04:27:20.614Z,50.50
2019-01-09T04:29:48.212Z,50.50
2019-01-09T04:32:15.749Z,50.40
2019-01-09T04:34:43.307Z,50.30
2019-01-09T04:37:10.876Z,50.20
2019-01-09T04:39:38.457Z,50.30
2019-01-09T04:42:05.995Z,50.30
2019-01-09T04:44:33.530Z,50.40
2019-01-09T04:47:01.113Z,50.40
2019-01-09T04:49:28.645Z,50.30
2019-01-09T04:51:56.170Z,50.40
2019-01-09T04:54:23.706Z,50.30
2019-01-09T04:56:51.243Z,50.20
2019-01-09T04:59:18.780Z,50.20
2019-01-09T05:01:46.303Z,50.30
2019-01-09T05:04:13.854Z,50.20
2019-01-09T05:06:41.452Z,50.00
2019-01-09T05:09:08.979Z,50.00
2019-01-09T05:11:36.512Z,50.00
2019-01-09T05:14:04.079Z,50.00
2019-01-09T05:16:31.600Z,50.20
2019-01-09T05:18:59.142Z,50.20
2019-01-09T05:21:29.684Z,50.20
2019-01-09T05:23:57.291Z,50.20
2019-01-09T05:26:24.813Z,50.30
2019-01-09T05:28:52.339Z,50.30
2019-01-09T05:31:19.876Z,50.30
2019-01-09T05:33:47.428Z,50.50
2019-01-09T05:36:14.947Z,50.50
2019-01-09T05:38:42.476Z,50.30
2019-01-09T05:41:10.027Z,50.30
2019-01-09T05:43:37.616Z,50.20
2019-01-09T05:46:05.148Z,50.30
2019-01-09T05:48:32.678Z,50.30
2019-01-09T05:51:00.223Z,50.40
2019-01-09T05:53:27.761Z,50.50
2019-01-09T05:55:55.299Z,51.10
2019-01-09T05:58:22.824Z,50.50
2019-01-09T06:00:50.370Z,50.50
2019-01-09T06:03:17.969Z,50.50
2019-01-09T06:05:45.508Z,50.40
2019-01-09T06:08:13.055Z,50.50
2019-01-09T06:10:40.663Z,50.50
2019-01-09T06:13:08.190Z,50.60
2019-01-09T06:15:35.742Z,50.50
2019-01-09T06:18:03.284Z,50.50
2019-01-09T06:20:30.833Z,50.50
2019-01-09T06:22:58.360Z,50.50
2019-01-09T06:25:25.895Z,50.50
2019-01-09T06:27:53.434Z,50.50
2019-01-09T06:30:20.955Z,50.50
2019-01-09T06:32:48.489Z,50.60
2019-01-09T06:35:16.018Z,50.50
2019-01-09T06:37:43.627Z,50.50
2019-01-09T06:40:11.189Z,50.50
2019-01-09T06:42:38.718Z,50.50
2019-01-09T06:45:07.001Z,50.50
2019-01-09T06:47:34.541Z,50.50
2019-01-09T06:50:02.346Z,50.60
2019-01-09T06:52:29.896Z,50.70
2019-01-09T06:54:57.514Z,50.50
2019-01-09T06:57:25.488Z,50.50
2019-01-09T06:59:53.028Z,50.50
2019-01-09T07:02:20.553Z,50.50
2019-01-09T07:04:48.091Z,50.40
2019-01-09T07:07:15.621Z,50.40
2019-01-09T07:09:43.156Z,50.70
2019-01-09T07:12:10.690Z,50.70
2019-01-09T07:14:38.222Z,50.50
2019-01-09T07:17:05.748Z,50.40
2019-01-09T07:19:33.417Z,50.50
2019-01-09T07:22:00.946Z,50.50
2019-01-09T07:24:28.476Z,50.60
2019-01-09T07:26:55.993Z,50.50
2019-01-09T07:29:23.526Z,50.40
2019-01-09T07:31:51.045Z,50.50
2019-01-09T07:34:18.577Z,50.40
2019-01-09T07:36:46.106Z,50.40
2019-01-09T07:39:13.643Z,50.60
2019-01-09T07:41:41.182Z,50.50
2019-01-09T07:44:08.782Z,50.50
2019-01-09T07:46:36.320Z,50.50
2019-01-09T07:49:03.861Z,50.50
2019-01-09T07:51:31.376Z,50.50
2019-01-09T07:53:58.901Z,50.40
2019-01-09T07:56:26.437Z,50.50
2019-01-09T07:58:54.109Z,50.50
2019-01-09T08:01:21.650Z,50.50
2019-01-09T08:03:49.187Z,50.30
2019-01-09T08:06:16.708Z,50.40
2019-01-09T08:08:44.242Z,50.40
2019-01-09T08:11:11.777Z,50.40
2019-01-09T08:13:39.309Z,50.50
2019-01-09T08:16:06.837Z,50.50
2019-01-09T08:18:34.371Z,50.50
2019-01-09T08:21:05.381Z,50.40
2019-01-09T08:23:31.157Z,50.40
2019-01-09T08:26:01.707Z,50.40
2019-01-09T08:28:29.241Z,50.50
2019-01-09T08:30:56.776Z,50.40
2019-01-09T08:33:24.313Z,50.40
2019-01-09T08:35:51.941Z,50.60
2019-01-09T08:38:19.460Z,50.60
2019-01-09T08:40:47.159Z,50.50
2019-01-09T08:43:14.874Z,50.40
2019-01-09T08:45:42.472Z,50.40
2019-01-09T08:48:10.001Z,50.40
2019-01-09T08:50:37.617Z,50.50
2019-01-09T08:53:05.261Z,50.40
2019-01-09T08:55:32.818Z,50.50
2019-01-09T08:58:00.355Z,50.40
2019-01-09T09:00:27.872Z,50.40
2019-01-09T09:02:55.412Z,50.40
2019-01-09T09:05:22.930Z,50.50
2019-01-09T09:07:52.108Z,50.50
2019-01-09T09:10:19.630Z,50.40
2019-01-09T09:12:47.183Z,50.50
2019-01-09T09:15:14.721Z,50.30
2019-01-09T09:17:42.263Z,50.30
2019-01-09T09:20:10.955Z,50.40
2019-01-09T09:22:38.602Z,50.40
2019-01-09T09:25:07.110Z,50.40
2019-01-09T09:27:34.655Z,50.50
2019-01-09T09:30:02.186Z,50.60
2019-01-09T09:32:29.709Z,50.70
2019-01-09T09:34:57.227Z,51.20
2019-01-09T09:37:24.786Z,50.70
2019-01-09T09:39:52.392Z,50.80
2019-01-09T09:42:19.921Z,50.60
2019-01-09T09:44:47.574Z,50.50
2019-01-09T09:47:15.175Z,50.50
2019-01-09T09:49:42.709Z,50.50
2019-01-09T09:52:10.234Z,50.50
2019-01-09T09:54:37.805Z,50.50
2019-01-09T09:57:05.365Z,51.00
2019-01-09T09:59:32.898Z,50.60
2019-01-09T10:02:00.436Z,50.60
2019-01-09T10:04:27.961Z,50.40
2019-01-09T10:06:55.495Z,50.40
2019-01-09T10:09:23.028Z,50.40
2019-01-09T10:11:50.562Z,50.50
2019-01-09T10:14:18.280Z,50.40
2019-01-09T10:16:45.818Z,50.50
2019-01-09T10:19:13.438Z,50.50
2019-01-09T10:21:40.960Z,50.40
2019-01-09T10:24:08.772Z,50.40
2019-01-09T10:26:36.302Z,50.50
2019-01-09T10:29:03.824Z,50.40
2019-01-09T10:31:31.362Z,50.50
2019-01-09T10:33:59.216Z,50.40
2019-01-09T10:36:26.740Z,50.40
2019-01-09T10:38:54.281Z,50.40
2019-01-09T10:41:21.904Z,51.10
2019-01-09T10:43:49.428Z,50.60
2019-01-09T10:46:16.954Z,50.50
2019-01-09T10:48:44.490Z,50.40
2019-01-09T10:51:12.017Z,50.40
2019-01-09T10:53:42.514Z,50.40
2019-01-09T10:56:10.043Z,50.40
2019-01-09T10:58:37.597Z,50.50
2019-01-09T11:01:05.193Z,50.40
2019-01-09T11:03:32.724Z,50.40
2019-01-09T11:06:00.257Z,50.40
2019-01-09T11:08:27.785Z,50.30
2019-01-09T11:10:55.357Z,50.30
2019-01-09T11:13:22.926Z,50.50
2019-01-09T11:15:50.452Z,50.90
2019-01-09T11:18:18.040Z,50.40
2019-01-09T11:20:48.527Z,50.00
2019-01-09T11:23:16.048Z,50.30
2019-01-09T11:25:43.577Z,50.30
2019-01-09T11:28:11.113Z,50.30
2019-01-09T11:30:38.644Z,50.50
2019-01-09T11:33:06.169Z,50.40
2019-01-09T11:35:33.683Z,50.40
2019-01-09T11:38:01.224Z,50.20
2019-01-09T11:40:28.819Z,50.00
2019-01-09T11:42:56.349Z,50.10
2019-01-09T11:45:23.878Z,50.30
2019-01-09T11:47:51.411Z,50.30
2019-01-09T11:50:18.976Z,50.10
2019-01-09T11:52:46.576Z,50.10
2019-01-09T11:55:14.675Z,50.10
2019-01-09T11:57:42.272Z,50.10
2019-01-09T12:00:11.682Z,50.00
2019-01-09T12:02:39.224Z,50.10
2019-01-09T12:05:07.517Z,50.00
2019-01-09T12:07:35.059Z,50.20
2019-01-09T12:10:02.602Z,50.20
2019-01-09T12:12:30.205Z,50.10
2019-01-09T12:14:57.778Z,50.00
2019-01-09T12:17:25.332Z,49.90
2019-01-09T12:19:52.873Z,50.00
2019-01-09T12:22:20.407Z,50.10
2019-01-09T12:24:47.966Z,50.20
2019-01-09T12:27:15.541Z,50.20
2019-01-09T12:29:43.055Z,50.20
2019-01-09T12:32:10.591Z,50.20
2019-01-09T12:34:38.122Z,50.20
2019-01-09T12:37:05.760Z,50.20
2019-01-09T12:39:33.425Z,50.30
2019-01-09T12:42:00.958Z,50.30
2019-01-09T12:44:28.500Z,50.20
2019-01-09T12:46:56.038Z,50.10
2019-01-09T12:49:23.662Z,50.10
2019-01-09T12:51:51.192Z,50.20
2019-01-09T12:54:18.739Z,50.30
2019-01-09T12:56:46.258Z,50.40
2019-01-09T12:59:21.361Z,50.40
2019-01-09T13:01:43.101Z,50.50
2019-01-09T13:04:10.620Z,51.10
2019-01-09T13:06:38.257Z,50.40
2019-01-09T13:09:07.050Z,50.40
2019-01-09T13:11:34.583Z,50.50
2019-01-09T13:14:02.119Z,50.50
2019-01-09T13:16:29.666Z,50.40
2019-01-09T13:18:57.283Z,50.50
2019-01-09T13:21:24.813Z,50.70
2019-01-09T13:23:52.342Z,50.60
2019-01-09T13:26:19.873Z,50.40
2019-01-09T13:28:47.402Z,50.40
2019-01-09T13:31:14.983Z,50.40
2019-01-09T13:33:42.882Z,50.40
2019-01-09T13:36:10.419Z,50.40
2019-01-09T13:38:38.027Z,50.30
2019-01-09T13:41:05.562Z,50.30
2019-01-09T13:43:33.082Z,50.30
2019-01-09T13:46:00.628Z,50.30
2019-01-09T13:48:28.158Z,50.30
2019-01-09T13:50:55.703Z,50.20
2019-01-09T13:53:23.234Z,50.40
2019-01-09T13:55:50.766Z,50.40
2019-01-09T13:58:18.287Z,50.50
2019-01-09T14:00:45.825Z,50.40
2019-01-09T14:03:13.371Z,50.30
2019-01-09T14:05:40.940Z,50.20
2019-01-09T14:08:08.541Z,50.30
2019-01-09T14:10:36.091Z,50.30
2019-01-09T14:13:03.666Z,50.40
2019-01-09T14:15:31.198Z,50.40
2019-01-09T14:17:58.726Z,50.30
2019-01-09T14:20:26.256Z,50.20
2019-01-09T14:22:53.798Z,50.20
2019-01-09T14:25:21.331Z,50.20
2019-01-09T14:27:48.860Z,50.40
2019-01-09T14:30:23.109Z,50.40
2019-01-09T14:32:50.648Z,50.40
2019-01-09T14:35:18.181Z,50.40
2019-01-09T14:37:45.703Z,50.10
2019-01-09T14:40:14.312Z,50.10
2019-01-09T14:42:41.855Z,50.10
2019-01-09T14:45:10.556Z,50.10
2019-01-09T14:47:38.176Z,50.20
2019-01-09T14:50:15.854Z,50.80
2019-01-09T14:52:43.416Z,50.20
2019-01-09T14:55:10.960Z,50.10
2019-01-09T14:57:38.495Z,50.70
2019-01-09T15:00:13.639Z,50.10
2019-01-09T15:02:41.258Z,50.30
2019-01-09T15:05:09.710Z,50.20
2019-01-09T15:07:37.648Z,50.20
2019-01-09T15:10:06.838Z,50.20
2019-01-09T15:12:34.359Z,50.20
2019-01-09T15:15:02.065Z,50.30
2019-01-09T15:17:29.932Z,50.30
2019-01-09T15:19:57.507Z,50.40
2019-01-09T15:22:25.041Z,50.30
2019-01-09T15:24:52.838Z,50.30
2019-01-09T15:27:20.429Z,50.30
2019-01-09T15:29:49.615Z,50.10
2019-01-09T15:32:17.151Z,50.10
2019-01-09T15:34:45.725Z,50.10
2019-01-09T15:37:13.382Z,50.00
2019-01-09T15:39:41.051Z,50.10
2019-01-09T15:42:08.609Z,50.10
2019-01-09T15:44:36.420Z,50.20
2019-01-09T15:47:04.526Z,50.10
2019-01-09T15:49:32.121Z,50.20
2019-01-09T15:51:59.769Z,50.10
2019-01-09T15:54:27.305Z,50.30
2019-01-09T15:56:55.162Z,50.10
2019-01-09T15:59:22.747Z,50.00
2019-01-09T16:01:50.273Z,49.90
2019-01-09T16:04:17.795Z,49.90
2019-01-09T16:06:45.328Z,50.00
2019-01-09T16:09:12.860Z,50.00
2019-01-09T16:11:40.395Z,50.00
2019-01-09T16:14:07.916Z,50.20
2019-01-09T16:16:35.754Z,50.40
2019-01-09T16:19:03.354Z,50.20
2019-01-09T16:21:30.932Z,50.30
2019-01-09T16:23:58.467Z,50.20
2019-01-09T16:26:26.005Z,50.30
2019-01-09T16:28:53.578Z,50.30
2019-01-09T16:31:21.119Z,50.40
2019-01-09T16:33:48.647Z,50.30
2019-01-09T16:36:16.192Z,50.30
2019-01-09T16:38:43.723Z,50.30
2019-01-09T16:41:11.275Z,50.30
2019-01-09T16:43:38.861Z,50.20
2019-01-09T16:46:06.487Z,50.20
2019-01-09T16:48:34.041Z,50.20
2019-01-09T16:51:01.633Z,50.20
2019-01-09T16:53:29.255Z,50.20
2019-01-09T16:55:56.865Z,49.80
2019-01-09T16:58:24.478Z,50.10
2019-01-09T17:00:52.089Z,50.20
2019-01-09T17:03:20.002Z,50.30
2019-01-09T17:05:47.869Z,50.40
2019-01-09T17:08:15.475Z,50.50
2019-01-09T17:10:43.081Z,51.10
2019-01-09T17:13:10.704Z,50.40
2019-01-09T17:15:38.299Z,50.30
2019-01-09T17:18:05.913Z,50.20
2019-01-09T17:20:33.498Z,50.30
2019-01-09T17:23:01.145Z,50.50
2019-01-09T17:25:28.751Z,50.60
2019-01-09T17:27:56.423Z,50.50
2019-01-09T17:30:29.330Z,50.70
2019-01-09T17:32:57.066Z,50.50
2019-01-09T17:35:27.331Z,50.80
2019-01-09T17:37:54.953Z,50.70
2019-01-09T17:40:23.183Z,50.60
2019-01-09T17:42:50.984Z,50.80
2019-01-09T17:45:18.535Z,50.80
2019-01-09T17:47:46.211Z,50.60
2019-01-09T17:50:15.440Z,50.50
2019-01-09T17:52:43.090Z,50.50
2019-01-09T17:55:11.516Z,50.40
2019-01-09T17:57:39.048Z,50.40
2019-01-09T18:00:08.290Z,50.40
2019-01-09T18:02:35.984Z,50.40
2019-01-09T18:05:04.781Z,50.40
2019-01-09T18:07:32.690Z,50.40
2019-01-09T18:10:00.228Z,50.50
2019-01-09T18:12:27.838Z,50.40
2019-01-09T18:14:55.377Z,50.40
2019-01-09T18:17:22.981Z,50.50
2019-01-09T18:19:51.033Z,50.30
2019-01-09T18:22:19.213Z,50.50
2019-01-09T18:24:46.854Z,50.40
2019-01-09T18:27:14.419Z,50.40
2019-01-09T18:29:42.145Z,49.90
2019-01-09T18:32:14.202Z,50.40
2019-01-09T18:34:41.915Z,50.30
2019-01-09T18:37:11.218Z,50.30
2019-01-09T18:39:40.399Z,50.20
2019-01-09T18:42:12.915Z,50.20
2019-01-09T18:44:44.854Z,49.90
2019-01-09T18:47:20.111Z,50.00
2019-01-09T18:50:05.709Z,49.90
2019-01-09T18:52:37.986Z,50.00
2019-01-09T18:55:06.987Z,50.10
2019-01-09T18:57:34.528Z,50.00
2019-01-09T19:00:02.145Z,50.00
2019-01-09T19:02:29.820Z,50.00
2019-01-09T19:04:57.385Z,49.90
2019-01-09T19:07:24.955Z,50.00
2019-01-09T19:09:52.500Z,50.40
2019-01-09T19:12:20.058Z,50.50
2019-01-09T19:14:47.671Z,50.50
2019-01-09T19:17:15.472Z,50.40
2019-01-09T19:19:43.066Z,50.30
2019-01-09T19:22:10.603Z,50.40
2019-01-09T19:24:38.212Z,50.50
2019-01-09T19:27:05.746Z,50.40
2019-01-09T19:29:33.288Z,50.40
2019-01-09T19:32:00.953Z,50.40
2019-01-09T19:34:28.488Z,50.40
2019-01-09T19:36:56.063Z,50.30
2019-01-09T19:39:23.593Z,50.20
2019-01-09T19:41:51.127Z,50.20
2019-01-09T19:44:18.692Z,50.40
2019-01-09T19:46:46.475Z,50.30
2019-01-09T19:49:14.021Z,50.00
2019-01-09T19:51:41.821Z,50.20
2019-01-09T19:54:09.354Z,50.40
2019-01-09T19:56:36.960Z,50.30
2019-01-09T19:59:04.773Z,50.40
2019-01-09T20:01:32.363Z,49.90
2019-01-09T20:03:59.900Z,50.40
2019-01-09T20:06:27.430Z,51.00
2019-01-09T20:08:54.958Z,50.40
2019-01-09T20:11:26.494Z,50.40
2019-01-09T20:13:51.786Z,50.40
2019-01-09T20:16:19.341Z,50.30
2019-01-09T20:18:46.919Z,50.40
2019-01-09T20:21:14.554Z,50.50
2019-01-09T20:23:42.296Z,50.40
2019-01-09T20:26:09.975Z,50.40
2019-01-09T20:28:37.660Z,50.40
2019-01-09T20:31:05.291Z,50.30
2019-01-09T20:33:32.921Z,50.40
2019-01-09T20:36:00.516Z,50.30
2019-01-09T20:38:28.101Z,50.40
2019-01-09T20:40:55.636Z,50.40
2019-01-09T20:43:23.179Z,50.30
2019-01-09T20:45:50.777Z,50.30
2019-01-09T20:48:18.411Z,50.40
2019-01-09T20:50:46.053Z,50.40
2019-01-09T20:53:13.692Z,50.30
2019-01-09T20:55:41.483Z,50.40
2019-01-09T20:58:09.081Z,50.40
2019-01-09T21:00:36.661Z,50.40
2019-01-09T21:03:04.260Z,50.40
2019-01-09T21:05:36.045Z,50.40
2019-01-09T21:08:03.757Z,50.40
2019-01-09T21:10:31.287Z,50.40
2019-01-09T21:12:58.904Z,50.40
2019-01-09T21:15:26.631Z,50.30
2019-01-09T21:17:54.213Z,50.40
2019-01-09T21:20:22.409Z,50.30
2019-01-09T21:22:50.011Z,50.40
2019-01-09T21:25:17.605Z,50.40
2019-01-09T21:27:45.152Z,50.40
2019-01-09T21:30:14.588Z,50.30
2019-01-09T21:32:42.179Z,50.30
2019-01-09T21:35:10.775Z,50.10
2019-01-09T21:37:38.316Z,50.00
2019-01-09T21:40:07.482Z,50.00
2019-01-09T21:42:35.087Z,50.00
2019-01-09T21:45:02.619Z,50.00
2019-01-09T21:47:30.164Z,50.10
2019-01-09T21:49:57.704Z,50.20
2019-01-09T21:52:25.262Z,50.10
2019-01-09T21:54:52.792Z,50.00
2019-01-09T21:57:20.325Z,50.10
2019-01-09T21:59:47.859Z,50.00
2019-01-09T22:02:15.379Z,50.10
2019-01-09T22:04:42.924Z,50.00
2019-01-09T22:07:10.459Z,49.90
2019-01-09T22:09:37.994Z,49.70
2019-01-09T22:12:05.590Z,49.70
2019-01-09T22:14:33.144Z,49.60
2019-01-09T22:17:00.733Z,49.70
2019-01-09T22:19:28.266Z,49.80
2019-01-09T22:21:55.793Z,49.90
2019-01-09T22:24:23.377Z,49.90
2019-01-09T22:26:51.014Z,49.60
2019-01-09T22:29:18.548Z,50.30
2019-01-09T22:31:46.073Z,49.70
2019-01-09T22:34:13.607Z,49.70
2019-01-09T22:36:41.133Z,49.80
2019-01-09T22:39:08.673Z,49.70
2019-01-09T22:41:36.198Z,49.70
2019-01-09T22:44:05.495Z,49.80
2019-01-09T22:46:34.842Z,49.90
2019-01-09T22:49:02.368Z,49.70
2019-01-09T22:51:30.069Z,49.60
2019-01-09T22:53:57.604Z,49.70
2019-01-09T22:56:25.201Z,49.60
2019-01-09T22:58:52.736Z,49.70
2019-01-09T23:01:20.523Z,49.70
2019-01-09T23:03:48.420Z,49.70
2019-01-09T23:06:15.958Z,49.70
2019-01-09T23:08:43.488Z,49.60
2019-01-09T23:11:11.017Z,49.60
2019-01-09T23:13:38.610Z,49.60
2019-01-09T23:16:06.157Z,49.70
2019-01-09T23:18:33.751Z,49.60
2019-01-09T23:21:01.278Z,49.50
2019-01-09T23:23:28.807Z,49.40
2019-01-09T23:25:56.346Z,49.40
2019-01-09T23:28:23.872Z,49.40
2019-01-09T23:30:51.410Z,49.40
2019-01-09T23:33:19.256Z,49.40
2019-01-09T23:35:46.871Z,50.10
2019-01-09T23:38:14.482Z,49.50
2019-01-09T23:40:41.999Z,49.60
2019-01-09T23:43:09.537Z,50.30
2019-01-09T23:45:37.251Z,49.60
2019-01-09T23:48:04.959Z,49.70
2019-01-09T23:50:32.493Z,49.50
2019-01-09T23:53:00.031Z,49.40
2019-01-09T23:55:27.556Z,49.40
2019-01-09T23:57:55.089Z,49.20
